sensor_id;sensor_type;location;lat;lon;timestamp;pressure;altitude;pressure_sealevel;temperature;humidity
69570;BME280;56781;42.292;23.146;2024-03-25T00:00:14;94334.72;;;3.38;88.03
69570;BME280;56781;42.292;23.146;2024-03-25T00:02:41;94002.94;;;1.28;86.94
69570;BME280;56781;42.292;23.146;2024-03-25T00:05:09;93997.91;;;1.27;86.84
69570;BME280;56781;42.292;23.146;2024-03-25T00:07:38;93830.28;;;0.10;85.92
69570;BME280;56781;42.292;23.146;2024-03-25T00:10:06;94169.13;;;2.44;86.62
69570;BME280;56781;42.292;23.146;2024-03-25T00:12:36;93959.56;;;0.50;87.33
69570;BME280;56781;42.292;23.146;2024-03-25T00:15:04;93849.03;;;-0.04;84.52
69570;BME280;56781;42.292;23.146;2024-03-25T00:17:30;94107.75;;;1.80;85.70
69570;BME280;56781;42.292;23.146;2024-03-25T00:19:57;93950.88;;;0.92;86.63
69570;BME280;56781;42.292;23.146;2024-03-25T00:22:23;93684.44;;;-0.81;85.52
69570;BME280;56781;42.292;23.146;2024-03-25T00:24:51;93877.25;;;0.31;86.63
69570;BME280;56781;42.292;23.146;2024-03-25T00:27:17;94307.28;;;3.00;87.62
69570;BME280;56781;42.292;23.146;2024-03-25T00:29:45;94096.91;;;1.59;85.69
69570;BME280;56781;42.292;23.146;2024-03-25T00:32:11;94213.84;;;2.41;85.76
69570;BME280;56781;42.292;23.146;2024-03-25T00:34:38;93953.47;;;0.60;86.73
69570;BME280;56781;42.292;23.146;2024-03-25T00:37:04;94170.66;;;2.34;85.94
69570;BME280;56781;42.292;23.146;2024-03-25T00:39:31;94109.72;;;1.94;85.61
69570;BME280;56781;42.292;23.146;2024-03-25T00:41:58;93736.75;;;-0.54;86.22
69570;BME280;56781;42.292;23.146;2024-03-25T00:44:25;93939.97;;;0.49;87.58
69570;BME280;56781;42.292;23.146;2024-03-25T00:46:51;93828.75;;;-0.60;88.98
69570;BME280;56781;42.292;23.146;2024-03-25T00:49:18;93912.72;;;-0.15;90.33
69570;BME280;56781;42.292;23.146;2024-03-25T00:51:44;93758.56;;;-1.14;91.22
69570;BME280;56781;42.292;23.146;2024-03-25T00:54:12;94123.78;;;1.37;91.00
69570;BME280;56781;42.292;23.146;2024-03-25T00:56:38;93855.13;;;-0.18;90.55
69570;BME280;56781;42.292;23.146;2024-03-25T00:59:05;93802.00;;;-0.46;89.69
69570;BME280;56781;42.292;23.146;2024-03-25T01:01:34;93994.25;;;0.73;89.19
69570;BME280;56781;42.292;23.146;2024-03-25T01:04:02;94250.06;;;2.30;90.65
69570;BME280;56781;42.292;23.146;2024-03-25T01:06:28;93773.31;;;-0.90;89.96
69570;BME280;56781;42.292;23.146;2024-03-25T01:08:55;93958.25;;;0.22;91.35
69570;BME280;56781;42.292;23.146;2024-03-25T01:11:21;93894.44;;;0.08;91.66
69570;BME280;56781;42.292;23.146;2024-03-25T01:13:48;93736.56;;;-0.86;90.84
69570;BME280;56781;42.292;23.146;2024-03-25T01:16:15;93764.41;;;-0.46;89.61
69570;BME280;56781;42.292;23.146;2024-03-25T01:18:42;94008.25;;;1.10;90.21
69570;BME280;56781;42.292;23.146;2024-03-25T01:21:08;94090.38;;;1.60;90.13
69570;BME280;56781;42.292;23.146;2024-03-25T01:23:35;94147.06;;;1.88;89.54
69570;BME280;56781;42.292;23.146;2024-03-25T01:26:01;93758.88;;;-0.71;91.37
69570;BME280;56781;42.292;23.146;2024-03-25T01:28:28;94113.41;;;1.43;90.02
69570;BME280;56781;42.292;23.146;2024-03-25T01:30:54;93880.47;;;-0.19;90.07
69570;BME280;56781;42.292;23.146;2024-03-25T01:33:21;94169.75;;;1.76;90.54
69570;BME280;56781;42.292;23.146;2024-03-25T01:35:47;94226.91;;;2.18;90.93
69570;BME280;56781;42.292;23.146;2024-03-25T01:38:14;93627.13;;;-1.73;90.34
69570;BME280;56781;42.292;23.146;2024-03-25T01:40:40;94128.91;;;1.67;90.37
69570;BME280;56781;42.292;23.146;2024-03-25T01:43:08;93808.84;;;-0.56;89.78
69570;BME280;56781;42.292;23.146;2024-03-25T01:45:34;93793.19;;;-0.43;90.53
69570;BME280;56781;42.292;23.146;2024-03-25T01:48:06;93803.25;;;-0.22;91.00
69570;BME280;56781;42.292;23.146;2024-03-25T01:50:35;94054.16;;;1.50;91.05
69570;BME280;56781;42.292;23.146;2024-03-25T01:53:04;93742.94;;;-0.42;89.29
69570;BME280;56781;42.292;23.146;2024-03-25T01:55:32;93872.59;;;0.24;89.35
69570;BME280;56781;42.292;23.146;2024-03-25T01:58:02;94002.91;;;1.18;89.14
69570;BME280;56781;42.292;23.146;2024-03-25T02:00:31;93844.53;;;0.14;89.44
69570;BME280;56781;42.292;23.146;2024-03-25T02:02:58;93926.97;;;0.69;88.47
69570;BME280;56781;42.292;23.146;2024-03-25T02:05:24;93847.53;;;-0.05;89.36
69570;BME280;56781;42.292;23.146;2024-03-25T02:07:52;93832.97;;;0.07;89.44
69570;BME280;56781;42.292;23.146;2024-03-25T02:10:18;94016.34;;;1.25;89.36
69570;BME280;56781;42.292;23.146;2024-03-25T02:12:46;93805.59;;;-0.17;89.27
69570;BME280;56781;42.292;23.146;2024-03-25T02:15:13;93831.41;;;-0.02;89.73
69570;BME280;56781;42.292;23.146;2024-03-25T02:17:41;94033.34;;;1.36;89.94
69570;BME280;56781;42.292;23.146;2024-03-25T02:20:07;94201.13;;;2.35;89.60
69570;BME280;56781;42.292;23.146;2024-03-25T02:22:35;94209.19;;;2.20;90.07
69570;BME280;56781;42.292;23.146;2024-03-25T02:25:06;94014.75;;;1.02;91.06
69570;BME280;56781;42.292;23.146;2024-03-25T02:27:34;93998.44;;;0.66;90.75
69570;BME280;56781;42.292;23.146;2024-03-25T02:32:31;94021.59;;;0.82;91.97
69570;BME280;56781;42.292;23.146;2024-03-25T02:34:58;93976.22;;;0.77;92.40
69570;BME280;56781;42.292;23.146;2024-03-25T02:37:26;93972.59;;;0.44;91.01
69570;BME280;56781;42.292;23.146;2024-03-25T02:39:58;93557.81;;;-2.26;90.81
69570;BME280;56781;42.292;23.146;2024-03-25T02:42:26;93885.44;;;-0.14;90.73
69570;BME280;56781;42.292;23.146;2024-03-25T02:44:53;93886.75;;;0.10;89.97
69570;BME280;56781;42.292;23.146;2024-03-25T02:47:21;93865.63;;;0.12;89.06
69570;BME280;56781;42.292;23.146;2024-03-25T02:49:47;93869.19;;;0.38;88.51
69570;BME280;56781;42.292;23.146;2024-03-25T02:52:14;94078.88;;;1.77;87.14
69570;BME280;56781;42.292;23.146;2024-03-25T02:54:41;94030.69;;;1.54;85.85
69570;BME280;56781;42.292;23.146;2024-03-25T02:57:07;94104.34;;;2.01;87.61
69570;BME280;56781;42.292;23.146;2024-03-25T02:59:34;94088.88;;;1.73;87.74
69570;BME280;56781;42.292;23.146;2024-03-25T03:02:00;93974.72;;;0.97;87.85
69570;BME280;56781;42.292;23.146;2024-03-25T03:04:27;93765.19;;;-0.42;87.69
69570;BME280;56781;42.292;23.146;2024-03-25T03:06:53;94236.25;;;2.96;88.46
69570;BME280;56781;42.292;23.146;2024-03-25T03:09:20;93856.91;;;0.37;87.36
69570;BME280;56781;42.292;23.146;2024-03-25T03:11:46;93989.38;;;1.03;87.32
69570;BME280;56781;42.292;23.146;2024-03-25T03:14:14;93817.88;;;-0.19;87.37
69570;BME280;56781;42.292;23.146;2024-03-25T03:16:40;93904.88;;;0.24;88.13
69570;BME280;56781;42.292;23.146;2024-03-25T03:19:07;94116.19;;;1.64;89.23
69570;BME280;56781;42.292;23.146;2024-03-25T03:21:33;94145.88;;;1.78;89.80
69570;BME280;56781;42.292;23.146;2024-03-25T03:24:00;94135.16;;;2.04;89.79
69570;BME280;56781;42.292;23.146;2024-03-25T03:26:26;94060.31;;;1.50;87.44
69570;BME280;56781;42.292;23.146;2024-03-25T03:28:56;94262.13;;;2.89;88.00
69570;BME280;56781;42.292;23.146;2024-03-25T03:31:23;93786.66;;;-0.42;87.36
69570;BME280;56781;42.292;23.146;2024-03-25T03:33:50;93950.81;;;0.71;86.67
69570;BME280;56781;42.292;23.146;2024-03-25T03:36:18;94052.13;;;1.18;88.72
69570;BME280;56781;42.292;23.146;2024-03-25T03:38:46;93975.97;;;0.30;90.52
69570;BME280;56781;42.292;23.146;2024-03-25T03:41:12;93681.28;;;-1.49;90.20
69570;BME280;56781;42.292;23.146;2024-03-25T03:43:39;93633.06;;;-1.97;90.72
69570;BME280;56781;42.292;23.146;2024-03-25T03:46:05;93932.06;;;0.12;90.86
69570;BME280;56781;42.292;23.146;2024-03-25T03:48:32;94158.84;;;1.51;91.15
69570;BME280;56781;42.292;23.146;2024-03-25T03:50:58;94273.56;;;2.26;91.02
69570;BME280;56781;42.292;23.146;2024-03-25T03:53:25;94337.59;;;2.47;90.96
69570;BME280;56781;42.292;23.146;2024-03-25T03:55:58;93881.75;;;-0.54;91.29
69570;BME280;56781;42.292;23.146;2024-03-25T03:58:27;93992.84;;;0.27;92.20
69570;BME280;56781;42.292;23.146;2024-03-25T04:00:54;93619.41;;;-2.26;92.22
69570;BME280;56781;42.292;23.146;2024-03-25T04:03:21;94283.81;;;1.95;92.61
69570;BME280;56781;42.292;23.146;2024-03-25T04:05:47;93884.69;;;-0.70;92.83
69570;BME280;56781;42.292;23.146;2024-03-25T04:08:14;94002.13;;;0.33;91.88
69570;BME280;56781;42.292;23.146;2024-03-25T04:10:42;93888.31;;;-0.44;91.73
69570;BME280;56781;42.292;23.146;2024-03-25T04:13:09;94009.63;;;0.69;91.34
69570;BME280;56781;42.292;23.146;2024-03-25T04:15:36;93930.22;;;0.23;90.76
69570;BME280;56781;42.292;23.146;2024-03-25T04:18:04;93672.47;;;-1.53;90.03
69570;BME280;56781;42.292;23.146;2024-03-25T04:20:36;94027.75;;;0.86;91.40
69570;BME280;56781;42.292;23.146;2024-03-25T04:23:04;94014.31;;;0.86;89.61
69570;BME280;56781;42.292;23.146;2024-03-25T04:25:36;94003.97;;;0.95;88.71
69570;BME280;56781;42.292;23.146;2024-03-25T04:28:04;93698.78;;;-1.15;87.38
69570;BME280;56781;42.292;23.146;2024-03-25T04:30:31;93924.53;;;0.35;87.89
69570;BME280;56781;42.292;23.146;2024-03-25T04:32:59;94034.34;;;0.96;89.20
69570;BME280;56781;42.292;23.146;2024-03-25T04:35:25;94059.16;;;1.44;88.90
69570;BME280;56781;42.292;23.146;2024-03-25T04:37:53;94255.53;;;2.65;89.87
69570;BME280;56781;42.292;23.146;2024-03-25T04:40:19;93896.09;;;0.34;88.72
69570;BME280;56781;42.292;23.146;2024-03-25T04:42:45;94155.19;;;2.03;89.87
69570;BME280;56781;42.292;23.146;2024-03-25T04:45:11;93996.19;;;0.76;90.24
69570;BME280;56781;42.292;23.146;2024-03-25T04:47:38;94097.59;;;1.34;88.95
69570;BME280;56781;42.292;23.146;2024-03-25T04:50:04;94321.13;;;2.70;90.57
69570;BME280;56781;42.292;23.146;2024-03-25T04:52:30;94032.31;;;0.71;91.25
69570;BME280;56781;42.292;23.146;2024-03-25T04:54:56;93965.66;;;0.43;90.32
69570;BME280;56781;42.292;23.146;2024-03-25T04:57:23;94086.06;;;1.41;86.05
69570;BME280;56781;42.292;23.146;2024-03-25T04:59:49;93700.78;;;-1.01;86.96
69570;BME280;56781;42.292;23.146;2024-03-25T05:02:15;93980.47;;;0.85;87.88
69570;BME280;56781;42.292;23.146;2024-03-25T05:04:41;94064.56;;;1.51;87.56
69570;BME280;56781;42.292;23.146;2024-03-25T05:07:07;93745.25;;;-1.03;88.97
69570;BME280;56781;42.292;23.146;2024-03-25T05:09:33;94108.34;;;1.27;88.99
69570;BME280;56781;42.292;23.146;2024-03-25T05:11:59;93853.00;;;-0.50;87.95
69570;BME280;56781;42.292;23.146;2024-03-25T05:14:25;94064.78;;;1.07;87.33
69570;BME280;56781;42.292;23.146;2024-03-25T05:16:51;94415.44;;;3.64;87.46
69570;BME280;56781;42.292;23.146;2024-03-25T05:19:17;94304.97;;;3.09;86.00
69570;BME280;56781;42.292;23.146;2024-03-25T05:21:42;93802.03;;;-0.39;83.72
69570;BME280;56781;42.292;23.146;2024-03-25T05:24:08;94243.16;;;2.47;84.92
69570;BME280;56781;42.292;23.146;2024-03-25T05:26:34;93979.25;;;0.68;82.89
69570;BME280;56781;42.292;23.146;2024-03-25T05:29:00;94428.19;;;3.92;82.63
69570;BME280;56781;42.292;23.146;2024-03-25T05:31:26;94335.84;;;3.76;79.25
69570;BME280;56781;42.292;23.146;2024-03-25T05:33:52;93987.19;;;1.73;79.27
69570;BME280;56781;42.292;23.146;2024-03-25T05:36:18;93998.75;;;1.81;74.35
69570;BME280;56781;42.292;23.146;2024-03-25T05:38:44;93914.78;;;1.18;76.23
69570;BME280;56781;42.292;23.146;2024-03-25T05:41:10;93996.44;;;1.62;74.74
69570;BME280;56781;42.292;23.146;2024-03-25T05:43:37;93769.19;;;-0.07;75.16
69570;BME280;56781;42.292;23.146;2024-03-25T05:46:03;94125.94;;;2.40;74.68
69570;BME280;56781;42.292;23.146;2024-03-25T05:48:30;93988.69;;;1.31;75.44
69570;BME280;56781;42.292;23.146;2024-03-25T05:51:06;94219.66;;;2.54;71.96
69570;BME280;56781;42.292;23.146;2024-03-25T05:53:32;94204.63;;;2.75;73.95
69570;BME280;56781;42.292;23.146;2024-03-25T05:55:58;94061.13;;;1.62;71.44
69570;BME280;56781;42.292;23.146;2024-03-25T05:58:24;94023.34;;;1.33;76.25
69570;BME280;56781;42.292;23.146;2024-03-25T06:00:50;94276.34;;;2.51;74.66
69570;BME280;56781;42.292;23.146;2024-03-25T06:03:16;94306.50;;;2.96;77.11
69570;BME280;56781;42.292;23.146;2024-03-25T06:05:42;93714.44;;;-0.61;76.90
69570;BME280;56781;42.292;23.146;2024-03-25T06:08:08;94255.19;;;2.88;79.09
69570;BME280;56781;42.292;23.146;2024-03-25T06:10:36;94294.53;;;3.36;75.97
69570;BME280;56781;42.292;23.146;2024-03-25T06:13:02;94118.22;;;2.07;75.56
69570;BME280;56781;42.292;23.146;2024-03-25T06:15:28;93910.13;;;0.97;73.76
69570;BME280;56781;42.292;23.146;2024-03-25T06:17:54;94041.53;;;2.08;75.29
69570;BME280;56781;42.292;23.146;2024-03-25T06:20:20;94165.25;;;3.24;73.11
69570;BME280;56781;42.292;23.146;2024-03-25T06:22:46;93913.28;;;1.28;71.60
69570;BME280;56781;42.292;23.146;2024-03-25T06:25:12;94176.06;;;2.95;68.78
69570;BME280;56781;42.292;23.146;2024-03-25T06:27:38;94458.31;;;4.48;69.44
69570;BME280;56781;42.292;23.146;2024-03-25T06:30:04;93964.78;;;1.12;70.50
69570;BME280;56781;42.292;23.146;2024-03-25T06:32:45;94156.03;;;2.57;67.97
69570;BME280;56781;42.292;23.146;2024-03-25T06:35:29;94409.25;;;4.03;73.41
69570;BME280;56781;42.292;23.146;2024-03-25T06:37:55;94142.53;;;2.42;71.27
69570;BME280;56781;42.292;23.146;2024-03-25T06:40:21;94335.03;;;5.55;64.62
69570;BME280;56781;42.292;23.146;2024-03-25T06:42:47;94125.03;;;4.77;59.37
69570;BME280;56781;42.292;23.146;2024-03-25T06:45:13;94200.44;;;4.82;62.04
69570;BME280;56781;42.292;23.146;2024-03-25T06:47:39;94509.84;;;6.17;67.73
69570;BME280;56781;42.292;23.146;2024-03-25T06:50:05;94182.94;;;3.50;64.07
69570;BME280;56781;42.292;23.146;2024-03-25T06:52:31;94195.31;;;3.33;66.16
69570;BME280;56781;42.292;23.146;2024-03-25T06:54:57;94310.34;;;3.77;63.79
69570;BME280;56781;42.292;23.146;2024-03-25T06:57:23;94327.25;;;4.20;66.04
69570;BME280;56781;42.292;23.146;2024-03-25T06:59:50;94055.78;;;2.48;64.34
69570;BME280;56781;42.292;23.146;2024-03-25T07:02:16;94078.53;;;2.61;64.46
69570;BME280;56781;42.292;23.146;2024-03-25T07:04:42;94183.00;;;3.21;64.38
69570;BME280;56781;42.292;23.146;2024-03-25T07:07:08;94282.13;;;4.77;61.01
69570;BME280;56781;42.292;23.146;2024-03-25T07:09:34;94113.38;;;4.80;58.67
69570;BME280;56781;42.292;23.146;2024-03-25T07:11:59;94267.47;;;5.30;56.89
69570;BME280;56781;42.292;23.146;2024-03-25T07:14:25;94192.31;;;4.26;58.82
69570;BME280;56781;42.292;23.146;2024-03-25T07:16:51;94381.88;;;5.00;63.64
69570;BME280;56781;42.292;23.146;2024-03-25T07:19:17;94498.81;;;4.87;62.29
69570;BME280;56781;42.292;23.146;2024-03-25T07:21:43;94465.69;;;4.12;62.32
69570;BME280;56781;42.292;23.146;2024-03-25T07:24:09;94565.16;;;5.64;62.68
69570;BME280;56781;42.292;23.146;2024-03-25T07:26:35;94474.59;;;5.47;62.13
69570;BME280;56781;42.292;23.146;2024-03-25T07:29:01;94279.53;;;5.18;60.95
69570;BME280;56781;42.292;23.146;2024-03-25T07:31:27;94029.13;;;4.29;57.53
69570;BME280;56781;42.292;23.146;2024-03-25T07:33:52;94408.22;;;7.21;54.81
69570;BME280;56781;42.292;23.146;2024-03-25T07:36:18;94207.44;;;5.28;57.49
69570;BME280;56781;42.292;23.146;2024-03-25T07:38:44;94029.88;;;4.30;55.42
69570;BME280;56781;42.292;23.146;2024-03-25T07:41:10;94267.44;;;5.75;57.77
69570;BME280;56781;42.292;23.146;2024-03-25T07:43:36;94287.25;;;6.10;56.91
69570;BME280;56781;42.292;23.146;2024-03-25T07:46:02;94541.97;;;7.46;57.08
69570;BME280;56781;42.292;23.146;2024-03-25T07:48:28;94180.94;;;4.49;57.07
69570;BME280;56781;42.292;23.146;2024-03-25T07:50:54;94384.47;;;5.77;56.42
69570;BME280;56781;42.292;23.146;2024-03-25T07:53:20;94467.25;;;6.07;59.48
69570;BME280;56781;42.292;23.146;2024-03-25T07:55:45;94249.31;;;3.69;60.80
69570;BME280;56781;42.292;23.146;2024-03-25T07:58:11;94289.78;;;4.15;61.19
69570;BME280;56781;42.292;23.146;2024-03-25T08:00:37;94170.06;;;3.86;62.49
69570;BME280;56781;42.292;23.146;2024-03-25T08:03:03;94417.53;;;5.65;59.55
69570;BME280;56781;42.292;23.146;2024-03-25T08:05:30;94190.53;;;3.87;60.00
69570;BME280;56781;42.292;23.146;2024-03-25T08:07:56;94042.63;;;2.85;60.72
69570;BME280;56781;42.292;23.146;2024-03-25T08:10:22;93982.94;;;2.48;60.64
69570;BME280;56781;42.292;23.146;2024-03-25T08:12:48;94253.63;;;4.61;59.72
69570;BME280;56781;42.292;23.146;2024-03-25T08:15:14;94270.59;;;4.65;59.64
69570;BME280;56781;42.292;23.146;2024-03-25T08:17:40;94173.81;;;4.07;59.54
69570;BME280;56781;42.292;23.146;2024-03-25T08:20:06;94226.59;;;4.47;59.42
69570;BME280;56781;42.292;23.146;2024-03-25T08:22:32;94075.72;;;3.04;59.82
69570;BME280;56781;42.292;23.146;2024-03-25T08:24:58;94408.25;;;5.59;59.46
69570;BME280;56781;42.292;23.146;2024-03-25T08:27:24;94453.41;;;5.87;56.79
69570;BME280;56781;42.292;23.146;2024-03-25T08:29:50;94527.44;;;6.47;56.42
69570;BME280;56781;42.292;23.146;2024-03-25T08:32:16;94590.91;;;6.71;55.38
69570;BME280;56781;42.292;23.146;2024-03-25T08:34:42;94454.94;;;5.95;57.95
69570;BME280;56781;42.292;23.146;2024-03-25T08:37:08;94310.03;;;4.74;57.59
69570;BME280;56781;42.292;23.146;2024-03-25T08:39:34;94454.72;;;6.20;59.05
69570;BME280;56781;42.292;23.146;2024-03-25T08:42:00;94251.72;;;5.10;55.50
69570;BME280;56781;42.292;23.146;2024-03-25T08:44:26;94331.81;;;5.71;54.31
69570;BME280;56781;42.292;23.146;2024-03-25T08:46:52;94230.63;;;5.74;55.35
69570;BME280;56781;42.292;23.146;2024-03-25T08:49:18;94525.88;;;7.28;52.57
69570;BME280;56781;42.292;23.146;2024-03-25T08:51:43;94571.38;;;7.89;54.92
69570;BME280;56781;42.292;23.146;2024-03-25T08:54:09;94237.59;;;6.13;50.01
69570;BME280;56781;42.292;23.146;2024-03-25T08:56:35;94288.59;;;5.49;53.80
69570;BME280;56781;42.292;23.146;2024-03-25T08:59:01;94197.28;;;4.91;53.30
69570;BME280;56781;42.292;23.146;2024-03-25T09:01:27;93942.81;;;2.57;52.62
69570;BME280;56781;42.292;23.146;2024-03-25T09:03:53;94430.44;;;5.43;54.80
69570;BME280;56781;42.292;23.146;2024-03-25T09:06:19;94259.38;;;4.63;54.01
69570;BME280;56781;42.292;23.146;2024-03-25T09:08:45;94070.91;;;3.62;53.59
69570;BME280;56781;42.292;23.146;2024-03-25T09:11:26;94190.50;;;3.91;52.59
69570;BME280;56781;42.292;23.146;2024-03-25T09:13:52;94270.28;;;4.49;54.14
69570;BME280;56781;42.292;23.146;2024-03-25T09:16:18;94221.53;;;4.56;54.02
69570;BME280;56781;42.292;23.146;2024-03-25T09:18:44;94483.38;;;7.07;51.42
69570;BME280;56781;42.292;23.146;2024-03-25T09:21:10;94215.84;;;6.16;52.48
69570;BME280;56781;42.292;23.146;2024-03-25T09:23:36;94446.44;;;7.95;52.70
69570;BME280;56781;42.292;23.146;2024-03-25T09:26:02;94567.97;;;7.82;51.52
69570;BME280;56781;42.292;23.146;2024-03-25T09:28:28;94341.63;;;6.40;53.46
69570;BME280;56781;42.292;23.146;2024-03-25T09:30:54;94399.66;;;6.92;54.30
69570;BME280;56781;42.292;23.146;2024-03-25T09:33:20;94230.34;;;5.65;50.89
69570;BME280;56781;42.292;23.146;2024-03-25T09:35:47;94441.38;;;7.12;53.08
69570;BME280;56781;42.292;23.146;2024-03-25T09:38:13;94563.28;;;7.55;55.87
69570;BME280;56781;42.292;23.146;2024-03-25T09:40:42;94414.88;;;6.85;50.59
69570;BME280;56781;42.292;23.146;2024-03-25T09:43:15;94593.94;;;8.20;51.04
69570;BME280;56781;42.292;23.146;2024-03-25T09:45:44;94513.09;;;7.56;53.25
69570;BME280;56781;42.292;23.146;2024-03-25T09:48:13;94458.63;;;6.95;51.26
69570;BME280;56781;42.292;23.146;2024-03-25T09:50:41;94182.66;;;6.02;49.73
69570;BME280;56781;42.292;23.146;2024-03-25T09:53:08;94223.31;;;6.39;49.87
69570;BME280;56781;42.292;23.146;2024-03-25T09:55:34;94171.00;;;5.67;51.28
69570;BME280;56781;42.292;23.146;2024-03-25T09:58:00;94214.94;;;5.51;54.39
69570;BME280;56781;42.292;23.146;2024-03-25T10:00:26;94471.78;;;7.00;50.96
69570;BME280;56781;42.292;23.146;2024-03-25T10:02:52;94274.41;;;5.76;50.57
69570;BME280;56781;42.292;23.146;2024-03-25T10:05:18;94337.94;;;6.24;51.23
69570;BME280;56781;42.292;23.146;2024-03-25T10:07:44;94240.16;;;5.51;52.53
69570;BME280;56781;42.292;23.146;2024-03-25T10:10:10;94025.69;;;4.21;54.50
69570;BME280;56781;42.292;23.146;2024-03-25T10:12:36;94332.53;;;5.75;55.63
69570;BME280;56781;42.292;23.146;2024-03-25T10:15:05;94330.94;;;5.36;54.71
69570;BME280;56781;42.292;23.146;2024-03-25T10:17:31;94470.50;;;5.84;55.69
69570;BME280;56781;42.292;23.146;2024-03-25T10:19:57;94319.56;;;4.96;54.84
69570;BME280;56781;42.292;23.146;2024-03-25T10:22:24;94133.44;;;3.71;53.54
69570;BME280;56781;42.292;23.146;2024-03-25T10:24:50;94441.00;;;5.89;55.63
69570;BME280;56781;42.292;23.146;2024-03-25T10:27:23;94330.09;;;4.80;54.34
69570;BME280;56781;42.292;23.146;2024-03-25T10:29:57;94126.66;;;3.23;55.47
69570;BME280;56781;42.292;23.146;2024-03-25T10:32:23;94350.97;;;4.90;54.45
69570;BME280;56781;42.292;23.146;2024-03-25T10:34:50;94093.25;;;3.73;53.75
69570;BME280;56781;42.292;23.146;2024-03-25T10:37:17;94199.34;;;4.76;54.78
69570;BME280;56781;42.292;23.146;2024-03-25T10:39:48;94339.81;;;5.40;53.89
69570;BME280;56781;42.292;23.146;2024-03-25T10:42:18;94333.91;;;4.97;51.99
69570;BME280;56781;42.292;23.146;2024-03-25T10:44:44;94261.28;;;4.66;52.40
69570;BME280;56781;42.292;23.146;2024-03-25T10:47:19;94235.84;;;4.57;51.63
69570;BME280;56781;42.292;23.146;2024-03-25T10:49:50;94358.19;;;5.67;50.99
69570;BME280;56781;42.292;23.146;2024-03-25T10:52:22;94474.44;;;6.28;50.81
69570;BME280;56781;42.292;23.146;2024-03-25T10:54:49;94248.25;;;4.51;50.78
69570;BME280;56781;42.292;23.146;2024-03-25T10:57:16;94505.13;;;6.21;53.34
69570;BME280;56781;42.292;23.146;2024-03-25T10:59:43;94016.41;;;2.75;49.84
69570;BME280;56781;42.292;23.146;2024-03-25T11:02:10;94186.22;;;4.08;51.75
69570;BME280;56781;42.292;23.146;2024-03-25T11:04:37;94320.78;;;4.92;52.11
69570;BME280;56781;42.292;23.146;2024-03-25T11:07:11;94240.59;;;4.35;51.87
69570;BME280;56781;42.292;23.146;2024-03-25T11:09:37;94424.56;;;6.11;53.04
69570;BME280;56781;42.292;23.146;2024-03-25T11:12:03;94029.09;;;3.73;50.96
69570;BME280;56781;42.292;23.146;2024-03-25T11:14:29;94056.22;;;3.59;47.78
69570;BME280;56781;42.292;23.146;2024-03-25T11:16:55;94272.69;;;5.03;52.15
69570;BME280;56781;42.292;23.146;2024-03-25T11:19:28;94000.16;;;3.70;49.44
69570;BME280;56781;42.292;23.146;2024-03-25T11:22:05;93984.84;;;4.05;50.47
69570;BME280;56781;42.292;23.146;2024-03-25T11:24:31;94222.25;;;5.58;49.07
69570;BME280;56781;42.292;23.146;2024-03-25T11:26:57;94391.50;;;7.22;45.70
69570;BME280;56781;42.292;23.146;2024-03-25T11:29:23;94432.44;;;7.69;47.42
69570;BME280;56781;42.292;23.146;2024-03-25T11:31:50;94112.47;;;5.69;47.99
69570;BME280;56781;42.292;23.146;2024-03-25T11:34:15;94490.91;;;8.62;46.17
69570;BME280;56781;42.292;23.146;2024-03-25T11:36:41;94281.47;;;7.00;49.68
69570;BME280;56781;42.292;23.146;2024-03-25T11:39:07;94170.06;;;5.84;46.39
69570;BME280;56781;42.292;23.146;2024-03-25T11:41:43;94273.25;;;6.15;46.29
69570;BME280;56781;42.292;23.146;2024-03-25T11:44:11;94345.25;;;6.30;50.87
69570;BME280;56781;42.292;23.146;2024-03-25T11:46:39;94263.75;;;5.54;50.59
69570;BME280;56781;42.292;23.146;2024-03-25T11:49:15;93937.41;;;3.38;49.06
69570;BME280;56781;42.292;23.146;2024-03-25T11:51:43;94213.34;;;4.67;48.82
69570;BME280;56781;42.292;23.146;2024-03-25T11:54:10;94613.78;;;7.56;51.21
69570;BME280;56781;42.292;23.146;2024-03-25T11:56:37;93991.19;;;4.33;49.68
69570;BME280;56781;42.292;23.146;2024-03-25T11:59:03;94019.00;;;4.75;49.10
69570;BME280;56781;42.292;23.146;2024-03-25T12:01:30;94075.25;;;4.60;48.12
69570;BME280;56781;42.292;23.146;2024-03-25T12:04:18;94606.09;;;8.43;49.70
69570;BME280;56781;42.292;23.146;2024-03-25T12:06:47;94257.03;;;6.42;51.01
69570;BME280;56781;42.292;23.146;2024-03-25T12:09:13;94400.47;;;7.46;50.51
69570;BME280;56781;42.292;23.146;2024-03-25T12:11:58;94247.16;;;6.55;49.84
69570;BME280;56781;42.292;23.146;2024-03-25T12:14:24;94262.41;;;6.76;46.72
69570;BME280;56781;42.292;23.146;2024-03-25T12:16:51;94481.56;;;8.40;48.96
69570;BME280;56781;42.292;23.146;2024-03-25T12:19:17;94483.34;;;8.50;50.06
69570;BME280;56781;42.292;23.146;2024-03-25T12:21:45;94607.56;;;9.45;47.96
69570;BME280;56781;42.292;23.146;2024-03-25T12:24:11;94092.72;;;5.99;48.42
69570;BME280;56781;42.292;23.146;2024-03-25T12:26:37;94494.41;;;8.86;48.81
69570;BME280;56781;42.292;23.146;2024-03-25T12:29:03;94303.19;;;7.54;49.55
69570;BME280;56781;42.292;23.146;2024-03-25T12:31:29;94147.22;;;5.78;49.75
69570;BME280;56781;42.292;23.146;2024-03-25T12:33:55;94412.09;;;6.93;50.97
69570;BME280;56781;42.292;23.146;2024-03-25T12:36:21;94263.00;;;5.50;49.49
69570;BME280;56781;42.292;23.146;2024-03-25T12:38:55;94324.56;;;6.06;47.42
69570;BME280;56781;42.292;23.146;2024-03-25T12:41:22;94272.94;;;6.43;48.45
69570;BME280;56781;42.292;23.146;2024-03-25T12:43:50;94581.00;;;8.28;50.22
69570;BME280;56781;42.292;23.146;2024-03-25T12:46:17;94357.91;;;6.44;49.19
69570;BME280;56781;42.292;23.146;2024-03-25T12:48:43;94328.91;;;6.68;51.52
69570;BME280;56781;42.292;23.146;2024-03-25T12:51:14;94475.16;;;7.99;49.59
69570;BME280;56781;42.292;23.146;2024-03-25T12:53:41;94648.69;;;9.35;48.16
69570;BME280;56781;42.292;23.146;2024-03-25T12:56:07;94257.84;;;6.39;48.79
69570;BME280;56781;42.292;23.146;2024-03-25T12:58:34;94587.16;;;8.59;49.61
69570;BME280;56781;42.292;23.146;2024-03-25T13:01:00;94294.72;;;6.02;46.54